sensor_id;sensor_type;location;lat;lon;timestamp;P1;durP1;ratioP1;P2;durP2;ratioP2
83554;SDS011;73511;50.996;7.030;2024-02-26T00:00:45;1.10;;;1.00;;
83554;SDS011;73511;50.996;7.030;2024-02-26T00:03:13;1.52;;;1.10;;
83554;SDS011;73511;50.996;7.030;2024-02-26T00:05:39;2.17;;;1.10;;
83554;SDS011;73511;50.996;7.030;2024-02-26T00:08:06;1.40;;;1.05;;
83554;SDS011;73511;50.996;7.030;2024-02-26T00:10:33;1.77;;;0.95;;
83554;SDS011;73511;50.996;7.030;2024-02-26T00:13:00;1.42;;;0.98;;
83554;SDS011;73511;50.996;7.030;2024-02-26T00:15:26;1.73;;;1.17;;
83554;SDS011;73511;50.996;7.030;2024-02-26T00:17:54;1.60;;;1.00;;
83554;SDS011;73511;50.996;7.030;2024-02-26T00:20:21;1.45;;;1.00;;
83554;SDS011;73511;50.996;7.030;2024-02-26T00:22:50;2.08;;;1.38;;
83554;SDS011;73511;50.996;7.030;2024-02-26T00:25:16;1.65;;;0.98;;
83554;SDS011;73511;50.996;7.030;2024-02-26T00:27:43;1.30;;;0.90;;
83554;SDS011;73511;50.996;7.030;2024-02-26T00:30:10;1.30;;;1.20;;
83554;SDS011;73511;50.996;7.030;2024-02-26T00:35:05;1.23;;;0.93;;
83554;SDS011;73511;50.996;7.030;2024-02-26T00:37:32;1.05;;;0.90;;
83554;SDS011;73511;50.996;7.030;2024-02-26T00:39:59;1.65;;;1.13;;
83554;SDS011;73511;50.996;7.030;2024-02-26T00:42:26;2.65;;;1.10;;
83554;SDS011;73511;50.996;7.030;2024-02-26T00:44:52;0.80;;;0.75;;
83554;SDS011;73511;50.996;7.030;2024-02-26T00:47:22;1.38;;;0.98;;
83554;SDS011;73511;50.996;7.030;2024-02-26T00:49:48;1.20;;;0.90;;
83554;SDS011;73511;50.996;7.030;2024-02-26T00:52:15;3.00;;;1.15;;
83554;SDS011;73511;50.996;7.030;2024-02-26T00:54:42;1.40;;;0.75;;
83554;SDS011;73511;50.996;7.030;2024-02-26T00:57:10;1.38;;;0.90;;
83554;SDS011;73511;50.996;7.030;2024-02-26T00:59:37;0.80;;;0.80;;
83554;SDS011;73511;50.996;7.030;2024-02-26T01:02:04;1.33;;;0.85;;
83554;SDS011;73511;50.996;7.030;2024-02-26T01:04:33;1.13;;;0.80;;
83554;SDS011;73511;50.996;7.030;2024-02-26T01:07:00;0.82;;;0.77;;
83554;SDS011;73511;50.996;7.030;2024-02-26T01:09:27;2.55;;;0.77;;
83554;SDS011;73511;50.996;7.030;2024-02-26T01:11:54;0.82;;;0.70;;
83554;SDS011;73511;50.996;7.030;2024-02-26T01:14:20;2.75;;;1.17;;
83554;SDS011;73511;50.996;7.030;2024-02-26T01:16:47;1.52;;;1.02;;
83554;SDS011;73511;50.996;7.030;2024-02-26T01:19:14;2.40;;;0.77;;
83554;SDS011;73511;50.996;7.030;2024-02-26T01:21:41;0.95;;;0.82;;
83554;SDS011;73511;50.996;7.030;2024-02-26T01:24:08;2.28;;;0.90;;
83554;SDS011;73511;50.996;7.030;2024-02-26T01:26:35;1.45;;;1.00;;
83554;SDS011;73511;50.996;7.030;2024-02-26T01:29:02;1.13;;;0.88;;
83554;SDS011;73511;50.996;7.030;2024-02-26T01:31:28;1.85;;;0.93;;
83554;SDS011;73511;50.996;7.030;2024-02-26T01:33:55;1.80;;;0.70;;
83554;SDS011;73511;50.996;7.030;2024-02-26T01:36:22;1.17;;;1.00;;
83554;SDS011;73511;50.996;7.030;2024-02-26T01:38:48;1.63;;;0.85;;
83554;SDS011;73511;50.996;7.030;2024-02-26T01:41:15;0.82;;;0.80;;
83554;SDS011;73511;50.996;7.030;2024-02-26T01:43:41;1.30;;;0.80;;
83554;SDS011;73511;50.996;7.030;2024-02-26T01:46:10;1.27;;;0.60;;
83554;SDS011;73511;50.996;7.030;2024-02-26T01:48:46;0.90;;;0.80;;
83554;SDS011;73511;50.996;7.030;2024-02-26T01:51:14;0.80;;;0.80;;
83554;SDS011;73511;50.996;7.030;2024-02-26T01:53:41;0.88;;;0.80;;
83554;SDS011;73511;50.996;7.030;2024-02-26T01:56:09;1.58;;;0.88;;
83554;SDS011;73511;50.996;7.030;2024-02-26T01:58:35;1.05;;;0.70;;
83554;SDS011;73511;50.996;7.030;2024-02-26T02:01:03;1.58;;;1.00;;
83554;SDS011;73511;50.996;7.030;2024-02-26T02:03:30;1.25;;;0.88;;
83554;SDS011;73511;50.996;7.030;2024-02-26T02:05:57;0.70;;;0.60;;
83554;SDS011;73511;50.996;7.030;2024-02-26T02:08:23;1.27;;;0.90;;
83554;SDS011;73511;50.996;7.030;2024-02-26T02:10:50;0.57;;;0.57;;
83554;SDS011;73511;50.996;7.030;2024-02-26T02:13:17;3.25;;;1.02;;
83554;SDS011;73511;50.996;7.030;2024-02-26T02:15:43;1.38;;;0.98;;
83554;SDS011;73511;50.996;7.030;2024-02-26T02:18:10;1.27;;;0.80;;
83554;SDS011;73511;50.996;7.030;2024-02-26T02:20:37;0.70;;;0.70;;
83554;SDS011;73511;50.996;7.030;2024-02-26T02:23:04;1.27;;;0.98;;
83554;SDS011;73511;50.996;7.030;2024-02-26T02:25:31;0.70;;;0.70;;
83554;SDS011;73511;50.996;7.030;2024-02-26T02:27:57;2.05;;;1.02;;
83554;SDS011;73511;50.996;7.030;2024-02-26T02:30:24;0.88;;;0.80;;
83554;SDS011;73511;50.996;7.030;2024-02-26T02:32:53;1.27;;;0.90;;
83554;SDS011;73511;50.996;7.030;2024-02-26T02:35:20;0.82;;;0.70;;
83554;SDS011;73511;50.996;7.030;2024-02-26T02:37:46;1.05;;;0.77;;
83554;SDS011;73511;50.996;7.030;2024-02-26T02:40:13;0.77;;;0.70;;
83554;SDS011;73511;50.996;7.030;2024-02-26T02:42:40;4.30;;;0.95;;
83554;SDS011;73511;50.996;7.030;2024-02-26T02:45:07;1.48;;;0.95;;
83554;SDS011;73511;50.996;7.030;2024-02-26T02:47:40;1.27;;;0.80;;
83554;SDS011;73511;50.996;7.030;2024-02-26T02:50:07;1.52;;;0.95;;
83554;SDS011;73511;50.996;7.030;2024-02-26T02:52:34;0.90;;;0.75;;
83554;SDS011;73511;50.996;7.030;2024-02-26T02:55:00;2.53;;;0.80;;
83554;SDS011;73511;50.996;7.030;2024-02-26T02:57:27;1.25;;;0.80;;
83554;SDS011;73511;50.996;7.030;2024-02-26T02:59:57;0.68;;;0.57;;
83554;SDS011;73511;50.996;7.030;2024-02-26T03:02:23;1.98;;;0.80;;
83554;SDS011;73511;50.996;7.030;2024-02-26T03:04:51;2.05;;;0.73;;
83554;SDS011;73511;50.996;7.030;2024-02-26T03:07:18;1.60;;;0.77;;
83554;SDS011;73511;50.996;7.030;2024-02-26T03:09:44;0.90;;;0.60;;
83554;SDS011;73511;50.996;7.030;2024-02-26T03:12:11;0.82;;;0.63;;
83554;SDS011;73511;50.996;7.030;2024-02-26T03:14:39;1.60;;;0.88;;
83554;SDS011;73511;50.996;7.030;2024-02-26T03:17:08;0.75;;;0.73;;
83554;SDS011;73511;50.996;7.030;2024-02-26T03:19:35;2.35;;;1.10;;
83554;SDS011;73511;50.996;7.030;2024-02-26T03:22:02;2.15;;;0.90;;
83554;SDS011;73511;50.996;7.030;2024-02-26T03:24:29;1.02;;;0.82;;
83554;SDS011;73511;50.996;7.030;2024-02-26T03:26:56;1.10;;;0.80;;
83554;SDS011;73511;50.996;7.030;2024-02-26T03:29:23;1.33;;;0.90;;
83554;SDS011;73511;50.996;7.030;2024-02-26T03:31:49;0.80;;;0.80;;
83554;SDS011;73511;50.996;7.030;2024-02-26T03:34:16;2.03;;;0.90;;
83554;SDS011;73511;50.996;7.030;2024-02-26T03:39:10;0.82;;;0.80;;
83554;SDS011;73511;50.996;7.030;2024-02-26T03:41:37;1.38;;;1.02;;
83554;SDS011;73511;50.996;7.030;2024-02-26T03:44:04;1.05;;;0.88;;
83554;SDS011;73511;50.996;7.030;2024-02-26T03:46:31;0.98;;;0.85;;
83554;SDS011;73511;50.996;7.030;2024-02-26T03:48:57;1.35;;;0.77;;
83554;SDS011;73511;50.996;7.030;2024-02-26T03:51:24;0.80;;;0.60;;
83554;SDS011;73511;50.996;7.030;2024-02-26T03:53:51;0.98;;;0.90;;
83554;SDS011;73511;50.996;7.030;2024-02-26T03:56:18;1.73;;;0.88;;
83554;SDS011;73511;50.996;7.030;2024-02-26T03:58:44;1.52;;;0.90;;
83554;SDS011;73511;50.996;7.030;2024-02-26T04:01:11;0.73;;;0.73;;
83554;SDS011;73511;50.996;7.030;2024-02-26T04:03:37;2.08;;;0.77;;
83554;SDS011;73511;50.996;7.030;2024-02-26T04:06:04;0.93;;;0.77;;
83554;SDS011;73511;50.996;7.030;2024-02-26T04:08:31;1.38;;;0.63;;
83554;SDS011;73511;50.996;7.030;2024-02-26T04:10:57;0.60;;;0.60;;
83554;SDS011;73511;50.996;7.030;2024-02-26T04:13:24;0.98;;;0.80;;
83554;SDS011;73511;50.996;7.030;2024-02-26T04:15:51;2.10;;;0.88;;
83554;SDS011;73511;50.996;7.030;2024-02-26T04:18:18;2.03;;;1.02;;
83554;SDS011;73511;50.996;7.030;2024-02-26T04:20:44;1.42;;;1.20;;
83554;SDS011;73511;50.996;7.030;2024-02-26T04:23:11;1.50;;;1.05;;
83554;SDS011;73511;50.996;7.030;2024-02-26T04:25:38;1.67;;;1.00;;
83554;SDS011;73511;50.996;7.030;2024-02-26T04:28:04;1.77;;;1.00;;
83554;SDS011;73511;50.996;7.030;2024-02-26T04:30:31;2.28;;;0.90;;
83554;SDS011;73511;50.996;7.030;2024-02-26T04:32:58;0.75;;;0.50;;
83554;SDS011;73511;50.996;7.030;2024-02-26T04:35:25;1.30;;;1.02;;
83554;SDS011;73511;50.996;7.030;2024-02-26T04:37:51;1.48;;;0.75;;
83554;SDS011;73511;50.996;7.030;2024-02-26T04:40:18;0.82;;;0.65;;
83554;SDS011;73511;50.996;7.030;2024-02-26T04:42:44;1.20;;;0.90;;
83554;SDS011;73511;50.996;7.030;2024-02-26T04:45:11;1.13;;;0.82;;
83554;SDS011;73511;50.996;7.030;2024-02-26T04:47:38;0.80;;;0.80;;
83554;SDS011;73511;50.996;7.030;2024-02-26T04:50:05;0.98;;;0.80;;
83554;SDS011;73511;50.996;7.030;2024-02-26T04:52:33;1.25;;;0.98;;
83554;SDS011;73511;50.996;7.030;2024-02-26T04:54:59;1.35;;;0.85;;
83554;SDS011;73511;50.996;7.030;2024-02-26T04:57:26;1.70;;;0.80;;
83554;SDS011;73511;50.996;7.030;2024-02-26T04:59:53;1.13;;;0.88;;
83554;SDS011;73511;50.996;7.030;2024-02-26T05:02:20;1.10;;;0.90;;
83554;SDS011;73511;50.996;7.030;2024-02-26T05:04:46;2.45;;;0.80;;
83554;SDS011;73511;50.996;7.030;2024-02-26T05:07:13;1.25;;;0.80;;
83554;SDS011;73511;50.996;7.030;2024-02-26T05:09:40;1.73;;;0.70;;
83554;SDS011;73511;50.996;7.030;2024-02-26T05:12:08;1.30;;;0.77;;
83554;SDS011;73511;50.996;7.030;2024-02-26T05:14:35;1.50;;;0.80;;
83554;SDS011;73511;50.996;7.030;2024-02-26T05:17:01;2.40;;;1.00;;
83554;SDS011;73511;50.996;7.030;2024-02-26T05:19:28;1.55;;;1.08;;
83554;SDS011;73511;50.996;7.030;2024-02-26T05:21:55;1.52;;;1.00;;
83554;SDS011;73511;50.996;7.030;2024-02-26T05:24:21;2.42;;;0.70;;
83554;SDS011;73511;50.996;7.030;2024-02-26T05:26:49;2.15;;;0.90;;
83554;SDS011;73511;50.996;7.030;2024-02-26T05:29:16;3.40;;;1.10;;
83554;SDS011;73511;50.996;7.030;2024-02-26T05:31:42;1.70;;;1.20;;
83554;SDS011;73511;50.996;7.030;2024-02-26T05:34:09;1.35;;;0.90;;
83554;SDS011;73511;50.996;7.030;2024-02-26T05:36:36;1.48;;;0.90;;
83554;SDS011;73511;50.996;7.030;2024-02-26T05:39:03;1.13;;;0.93;;
83554;SDS011;73511;50.996;7.030;2024-02-26T05:41:30;2.28;;;0.82;;
83554;SDS011;73511;50.996;7.030;2024-02-26T05:43:57;1.80;;;0.93;;
83554;SDS011;73511;50.996;7.030;2024-02-26T05:46:25;1.25;;;0.90;;
83554;SDS011;73511;50.996;7.030;2024-02-26T05:48:53;3.00;;;1.00;;
83554;SDS011;73511;50.996;7.030;2024-02-26T05:51:20;1.90;;;0.98;;
83554;SDS011;73511;50.996;7.030;2024-02-26T05:53:47;1.10;;;0.90;;
83554;SDS011;73511;50.996;7.030;2024-02-26T05:56:20;2.08;;;1.20;;
83554;SDS011;73511;50.996;7.030;2024-02-26T05:58:50;2.90;;;1.30;;
83554;SDS011;73511;50.996;7.030;2024-02-26T06:01:18;2.25;;;1.05;;
83554;SDS011;73511;50.996;7.030;2024-02-26T06:03:44;1.42;;;0.98;;
83554;SDS011;73511;50.996;7.030;2024-02-26T06:06:11;1.38;;;1.05;;
83554;SDS011;73511;50.996;7.030;2024-02-26T06:08:39;1.13;;;1.02;;
83554;SDS011;73511;50.996;7.030;2024-02-26T06:11:06;1.58;;;1.00;;
83554;SDS011;73511;50.996;7.030;2024-02-26T06:13:33;1.35;;;0.93;;
83554;SDS011;73511;50.996;7.030;2024-02-26T06:16:00;0.90;;;0.80;;
83554;SDS011;73511;50.996;7.030;2024-02-26T06:18:30;2.03;;;1.23;;
83554;SDS011;73511;50.996;7.030;2024-02-26T06:20:57;1.45;;;1.05;;
83554;SDS011;73511;50.996;7.030;2024-02-26T06:23:24;1.90;;;1.10;;
83554;SDS011;73511;50.996;7.030;2024-02-26T06:25:50;1.13;;;0.90;;
83554;SDS011;73511;50.996;7.030;2024-02-26T06:28:17;2.50;;;1.17;;
83554;SDS011;73511;50.996;7.030;2024-02-26T06:30:44;2.85;;;1.20;;
83554;SDS011;73511;50.996;7.030;2024-02-26T06:33:11;2.03;;;1.20;;
83554;SDS011;73511;50.996;7.030;2024-02-26T06:35:38;2.85;;;1.25;;
83554;SDS011;73511;50.996;7.030;2024-02-26T06:38:04;1.27;;;0.88;;
83554;SDS011;73511;50.996;7.030;2024-02-26T06:40:31;1.17;;;1.08;;
83554;SDS011;73511;50.996;7.030;2024-02-26T06:42:57;2.13;;;1.30;;
83554;SDS011;73511;50.996;7.030;2024-02-26T06:45:24;1.63;;;1.00;;
83554;SDS011;73511;50.996;7.030;2024-02-26T06:47:51;1.58;;;1.20;;
83554;SDS011;73511;50.996;7.030;2024-02-26T06:50:18;1.50;;;0.75;;
83554;SDS011;73511;50.996;7.030;2024-02-26T06:52:44;3.47;;;1.30;;
83554;SDS011;73511;50.996;7.030;2024-02-26T06:55:12;1.00;;;0.85;;
83554;SDS011;73511;50.996;7.030;2024-02-26T06:57:39;1.50;;;1.05;;
83554;SDS011;73511;50.996;7.030;2024-02-26T07:00:06;1.58;;;1.23;;
83554;SDS011;73511;50.996;7.030;2024-02-26T07:02:33;1.90;;;1.30;;
83554;SDS011;73511;50.996;7.030;2024-02-26T07:05:05;2.20;;;1.40;;
83554;SDS011;73511;50.996;7.030;2024-02-26T07:07:32;1.88;;;1.10;;
83554;SDS011;73511;50.996;7.030;2024-02-26T07:09:59;2.47;;;1.52;;
83554;SDS011;73511;50.996;7.030;2024-02-26T07:12:27;1.23;;;1.08;;
83554;SDS011;73511;50.996;7.030;2024-02-26T07:14:54;1.83;;;0.95;;
83554;SDS011;73511;50.996;7.030;2024-02-26T07:17:21;1.90;;;1.10;;
83554;SDS011;73511;50.996;7.030;2024-02-26T07:19:47;3.58;;;0.98;;
83554;SDS011;73511;50.996;7.030;2024-02-26T07:22:14;0.82;;;0.73;;
83554;SDS011;73511;50.996;7.030;2024-02-26T07:24:41;1.30;;;1.08;;
83554;SDS011;73511;50.996;7.030;2024-02-26T07:27:07;2.58;;;1.10;;
83554;SDS011;73511;50.996;7.030;2024-02-26T07:29:34;2.05;;;1.00;;
83554;SDS011;73511;50.996;7.030;2024-02-26T07:32:01;2.45;;;1.10;;
83554;SDS011;73511;50.996;7.030;2024-02-26T07:34:27;2.17;;;1.63;;
83554;SDS011;73511;50.996;7.030;2024-02-26T07:36:56;1.45;;;1.08;;
83554;SDS011;73511;50.996;7.030;2024-02-26T07:39:23;1.38;;;0.90;;
83554;SDS011;73511;50.996;7.030;2024-02-26T07:41:50;1.63;;;1.15;;
83554;SDS011;73511;50.996;7.030;2024-02-26T07:44:19;1.50;;;0.88;;
83554;SDS011;73511;50.996;7.030;2024-02-26T07:46:46;2.08;;;1.10;;
83554;SDS011;73511;50.996;7.030;2024-02-26T07:49:13;1.10;;;1.00;;
83554;SDS011;73511;50.996;7.030;2024-02-26T07:51:40;1.35;;;1.02;;
83554;SDS011;73511;50.996;7.030;2024-02-26T07:54:07;4.78;;;1.20;;
83554;SDS011;73511;50.996;7.030;2024-02-26T07:56:34;1.50;;;1.13;;
83554;SDS011;73511;50.996;7.030;2024-02-26T07:59:00;1.75;;;0.95;;
83554;SDS011;73511;50.996;7.030;2024-02-26T08:01:30;1.17;;;0.80;;
83554;SDS011;73511;50.996;7.030;2024-02-26T08:03:56;0.93;;;0.88;;
83554;SDS011;73511;50.996;7.030;2024-02-26T08:06:24;1.30;;;1.10;;
83554;SDS011;73511;50.996;7.030;2024-02-26T08:08:52;2.60;;;1.20;;
83554;SDS011;73511;50.996;7.030;2024-02-26T08:11:21;2.63;;;0.90;;
83554;SDS011;73511;50.996;7.030;2024-02-26T08:13:48;1.38;;;1.20;;
83554;SDS011;73511;50.996;7.030;2024-02-26T08:16:15;0.82;;;0.80;;
83554;SDS011;73511;50.996;7.030;2024-02-26T08:18:41;2.42;;;0.80;;
83554;SDS011;73511;50.996;7.030;2024-02-26T08:21:08;1.05;;;0.85;;
83554;SDS011;73511;50.996;7.030;2024-02-26T08:23:35;1.70;;;1.15;;
83554;SDS011;73511;50.996;7.030;2024-02-26T08:26:01;2.42;;;1.13;;
83554;SDS011;73511;50.996;7.030;2024-02-26T08:28:30;1.38;;;0.93;;
83554;SDS011;73511;50.996;7.030;2024-02-26T08:30:57;2.03;;;1.00;;
83554;SDS011;73511;50.996;7.030;2024-02-26T08:33:23;3.13;;;1.15;;
83554;SDS011;73511;50.996;7.030;2024-02-26T08:35:50;1.88;;;1.15;;
83554;SDS011;73511;50.996;7.030;2024-02-26T08:38:17;1.73;;;1.20;;
83554;SDS011;73511;50.996;7.030;2024-02-26T08:40:44;1.65;;;0.93;;
83554;SDS011;73511;50.996;7.030;2024-02-26T08:43:10;2.80;;;1.20;;
83554;SDS011;73511;50.996;7.030;2024-02-26T08:45:37;1.60;;;0.98;;
83554;SDS011;73511;50.996;7.030;2024-02-26T08:48:03;1.50;;;1.02;;
83554;SDS011;73511;50.996;7.030;2024-02-26T08:50:31;1.45;;;0.98;;
83554;SDS011;73511;50.996;7.030;2024-02-26T08:52:57;2.30;;;1.10;;
83554;SDS011;73511;50.996;7.030;2024-02-26T08:55:25;2.20;;;1.20;;
83554;SDS011;73511;50.996;7.030;2024-02-26T08:57:51;1.77;;;1.02;;
83554;SDS011;73511;50.996;7.030;2024-02-26T09:00:18;2.58;;;1.40;;
83554;SDS011;73511;50.996;7.030;2024-02-26T09:02:47;1.70;;;1.27;;
83554;SDS011;73511;50.996;7.030;2024-02-26T09:07:41;0.85;;;0.65;;
83554;SDS011;73511;50.996;7.030;2024-02-26T09:10:08;0.88;;;0.80;;
83554;SDS011;73511;50.996;7.030;2024-02-26T09:12:37;2.05;;;1.40;;
83554;SDS011;73511;50.996;7.030;2024-02-26T09:15:06;2.13;;;0.90;;
83554;SDS011;73511;50.996;7.030;2024-02-26T09:17:33;2.50;;;1.20;;
83554;SDS011;73511;50.996;7.030;2024-02-26T09:19:59;1.70;;;1.33;;
83554;SDS011;73511;50.996;7.030;2024-02-26T09:22:26;1.70;;;1.25;;
83554;SDS011;73511;50.996;7.030;2024-02-26T09:24:53;1.52;;;0.70;;
83554;SDS011;73511;50.996;7.030;2024-02-26T09:27:19;2.47;;;1.25;;
83554;SDS011;73511;50.996;7.030;2024-02-26T09:29:46;1.30;;;1.00;;
83554;SDS011;73511;50.996;7.030;2024-02-26T09:32:13;1.75;;;1.00;;
83554;SDS011;73511;50.996;7.030;2024-02-26T09:34:41;2.03;;;1.38;;
83554;SDS011;73511;50.996;7.030;2024-02-26T09:37:08;1.95;;;1.08;;
83554;SDS011;73511;50.996;7.030;2024-02-26T09:39:46;1.88;;;1.00;;
83554;SDS011;73511;50.996;7.030;2024-02-26T09:42:13;3.05;;;1.70;;
83554;SDS011;73511;50.996;7.030;2024-02-26T09:44:40;1.52;;;0.98;;
83554;SDS011;73511;50.996;7.030;2024-02-26T09:47:10;4.53;;;1.25;;
83554;SDS011;73511;50.996;7.030;2024-02-26T09:49:39;2.22;;;1.27;;
83554;SDS011;73511;50.996;7.030;2024-02-26T09:52:06;1.73;;;1.10;;
83554;SDS011;73511;50.996;7.030;2024-02-26T09:54:35;2.13;;;1.20;;
83554;SDS011;73511;50.996;7.030;2024-02-26T09:57:02;1.23;;;0.98;;
83554;SDS011;73511;50.996;7.030;2024-02-26T09:59:36;2.55;;;1.33;;
83554;SDS011;73511;50.996;7.030;2024-02-26T10:02:13;2.05;;;1.33;;
83554;SDS011;73511;50.996;7.030;2024-02-26T10:04:40;1.33;;;1.00;;
83554;SDS011;73511;50.996;7.030;2024-02-26T10:07:10;2.00;;;1.15;;
83554;SDS011;73511;50.996;7.030;2024-02-26T10:09:38;1.38;;;1.00;;
83554;SDS011;73511;50.996;7.030;2024-02-26T10:12:05;1.48;;;1.10;;
83554;SDS011;73511;50.996;7.030;2024-02-26T10:14:33;1.63;;;1.17;;
83554;SDS011;73511;50.996;7.030;2024-02-26T10:17:00;2.28;;;1.30;;
83554;SDS011;73511;50.996;7.030;2024-02-26T10:19:30;1.80;;;1.30;;
83554;SDS011;73511;50.996;7.030;2024-02-26T10:22:01;1.80;;;1.58;;
83554;SDS011;73511;50.996;7.030;2024-02-26T10:24:28;2.72;;;1.20;;
83554;SDS011;73511;50.996;7.030;2024-02-26T10:29:23;1.33;;;0.88;;
83554;SDS011;73511;50.996;7.030;2024-02-26T10:31:51;1.70;;;1.00;;
83554;SDS011;73511;50.996;7.030;2024-02-26T10:34:18;2.35;;;1.45;;
83554;SDS011;73511;50.996;7.030;2024-02-26T10:36:45;2.17;;;1.25;;
83554;SDS011;73511;50.996;7.030;2024-02-26T10:39:19;3.85;;;2.05;;
83554;SDS011;73511;50.996;7.030;2024-02-26T10:41:46;2.40;;;1.38;;
83554;SDS011;73511;50.996;7.030;2024-02-26T10:44:13;2.03;;;1.40;;
83554;SDS011;73511;50.996;7.030;2024-02-26T10:46:44;2.33;;;1.27;;
83554;SDS011;73511;50.996;7.030;2024-02-26T10:49:14;1.70;;;1.27;;
83554;SDS011;73511;50.996;7.030;2024-02-26T10:51:44;2.45;;;1.50;;
83554;SDS011;73511;50.996;7.030;2024-02-26T10:56:41;1.85;;;1.40;;
83554;SDS011;73511;50.996;7.030;2024-02-26T10:59:09;2.40;;;1.50;;
83554;SDS011;73511;50.996;7.030;2024-02-26T11:01:39;2.47;;;1.40;;
83554;SDS011;73511;50.996;7.030;2024-02-26T11:06:34;1.60;;;1.30;;
83554;SDS011;73511;50.996;7.030;2024-02-26T11:09:01;3.90;;;1.95;;
83554;SDS011;73511;50.996;7.030;2024-02-26T11:11:30;2.20;;;1.33;;
83554;SDS011;73511;50.996;7.030;2024-02-26T11:13:58;2.35;;;1.35;;
83554;SDS011;73511;50.996;7.030;2024-02-26T11:16:25;2.53;;;1.52;;
83554;SDS011;73511;50.996;7.030;2024-02-26T11:18:52;3.55;;;1.42;;
83554;SDS011;73511;50.996;7.030;2024-02-26T11:21:21;2.05;;;1.30;;
83554;SDS011;73511;50.996;7.030;2024-02-26T11:24:14;2.08;;;1.20;;
83554;SDS011;73511;50.996;7.030;2024-02-26T11:26:46;2.15;;;1.42;;
83554;SDS011;73511;50.996;7.030;2024-02-26T11:29:17;2.53;;;1.27;;
83554;SDS011;73511;50.996;7.030;2024-02-26T11:31:46;2.33;;;1.17;;
83554;SDS011;73511;50.996;7.030;2024-02-26T11:34:13;1.48;;;1.10;;
83554;SDS011;73511;50.996;7.030;2024-02-26T11:36:40;3.00;;;1.48;;
83554;SDS011;73511;50.996;7.030;2024-02-26T11:39:08;3.03;;;1.35;;
83554;SDS011;73511;50.996;7.030;2024-02-26T11:41:43;2.55;;;1.33;;
83554;SDS011;73511;50.996;7.030;2024-02-26T11:44:10;1.15;;;1.02;;
83554;SDS011;73511;50.996;7.030;2024-02-26T11:46:40;3.47;;;1.48;;
83554;SDS011;73511;50.996;7.030;2024-02-26T11:51:51;2.70;;;1.52;;
83554;SDS011;73511;50.996;7.030;2024-02-26T11:57:25;1.67;;;1.35;;
83554;SDS011;73511;50.996;7.030;2024-02-26T11:59:53;2.17;;;1.50;;
83554;SDS011;73511;50.996;7.030;2024-02-26T12:02:37;3.10;;;1.52;;
83554;SDS011;73511;50.996;7.030;2024-02-26T12:07:44;2.28;;;1.40;;
83554;SDS011;73511;50.996;7.030;2024-02-26T12:10:35;2.25;;;1.70;;
83554;SDS011;73511;50.996;7.030;2024-02-26T12:15:45;1.88;;;1.45;;
83554;SDS011;73511;50.996;7.030;2024-02-26T12:18:16;2.53;;;1.55;;
83554;SDS011;73511;50.996;7.030;2024-02-26T12:20:44;1.92;;;1.27;;
83554;SDS011;73511;50.996;7.030;2024-02-26T12:23:15;3.55;;;1.35;;
83554;SDS011;73511;50.996;7.030;2024-02-26T12:25:45;3.83;;;1.60;;
83554;SDS011;73511;50.996;7.030;2024-02-26T12:28:14;2.08;;;1.40;;
83554;SDS011;73511;50.996;7.030;2024-02-26T12:30:41;2.10;;;1.52;;
83554;SDS011;73511;50.996;7.030;2024-02-26T12:33:08;2.85;;;1.70;;
83554;SDS011;73511;50.996;7.030;2024-02-26T12:35:35;2.67;;;2.00;;
83554;SDS011;73511;50.996;7.030;2024-02-26T12:38:01;4.32;;;2.20;;
83554;SDS011;73511;50.996;7.030;2024-02-26T12:40:30;3.38;;;1.95;;
83554;SDS011;73511;50.996;7.030;2024-02-26T12:42:57;1.90;;;1.30;;
83554;SDS011;73511;50.996;7.030;2024-02-26T12:45:24;2.08;;;1.55;;
83554;SDS011;73511;50.996;7.030;2024-02-26T12:50:18;3.05;;;1.85;;
83554;SDS011;73511;50.996;7.030;2024-02-26T12:52:46;1.65;;;1.30;;
83554;SDS011;73511;50.996;7.030;2024-02-26T12:55:17;3.00;;;1.60;;
83554;SDS011;73511;50.996;7.030;2024-02-26T12:57:45;2.90;;;1.70;;
83554;SDS011;73511;50.996;7.030;2024-02-26T13:00:13;1.98;;;1.55;;
83554;SDS011;73511;50.996;7.030;2024-02-26T13:02:41;2.85;;;1.70;;
83554;SDS011;73511;50.996;7.030;2024-02-26T13:05:11;3.42;;;1.75;;
83554;SDS011;73511;50.996;7.030;2024-02-26T13:07:48;3.33;;;2.05;;
83554;SDS011;73511;50.996;7.030;2024-02-26T13:10:15;2.45;;;1.63;;
83554;SDS011;73511;50.996;7.030;2024-02-26T13:12:44;3.08;;;1.17;;
83554;SDS011;73511;50.996;7.030;2024-02-26T13:15:19;2.22;;;1.50;;
83554;SDS011;73511;50.996;7.030;2024-02-26T13:17:47;2.78;;;1.52;;
83554;SDS011;73511;50.996;7.030;2024-02-26T13:20:28;3.92;;;1.95;;
83554;SDS011;73511;50.996;7.030;2024-02-26T13:23:02;4.30;;;2.13;;
83554;SDS011;73511;50.996;7.030;2024-02-26T13:25:38;3.88;;;2.08;;
83554;SDS011;73511;50.996;7.030;2024-02-26T13:28:18;4.28;;;1.60;;
83554;SDS011;73511;50.996;7.030;2024-02-26T13:30:52;5.00;;;2.20;;
83554;SDS011;73511;50.996;7.030;2024-02-26T13:33:23;4.35;;;1.63;;
83554;SDS011;73511;50.996;7.030;2024-02-26T13:35:50;2.78;;;1.23;;
83554;SDS011;73511;50.996;7.030;2024-02-26T13:38:17;4.90;;;2.47;;
83554;SDS011;73511;50.996;7.030;2024-02-26T13:40:44;5.28;;;2.00;;
83554;SDS011;73511;50.996;7.030;2024-02-26T13:43:11;2.67;;;1.80;;
83554;SDS011;73511;50.996;7.030;2024-02-26T13:45:38;4.55;;;2.08;;
83554;SDS011;73511;50.996;7.030;2024-02-26T13:48:07;3.78;;;2.20;;
83554;SDS011;73511;50.996;7.030;2024-02-26T13:50:37;5.82;;;2.45;;
83554;SDS011;73511;50.996;7.030;2024-02-26T13:53:06;3.70;;;2.33;;
83554;SDS011;73511;50.996;7.030;2024-02-26T13:55:33;5.28;;;2.65;;
83554;SDS011;73511;50.996;7.030;2024-02-26T13:58:00;4.88;;;2.35;;
83554;SDS011;73511;50.996;7.030;2024-02-26T14:00:29;4.68;;;2.45;;
83554;SDS011;73511;50.996;7.030;2024-02-26T14:03:00;4.38;;;2.50;;
83554;SDS011;73511;50.996;7.030;2024-02-26T14:05:28;4.72;;;2.50;;
83554;SDS011;73511;50.996;7.030;2024-02-26T14:07:54;6.45;;;2.90;;
83554;SDS011;73511;50.996;7.030;2024-02-26T14:10:22;4.22;;;2.30;;
83554;SDS011;73511;50.996;7.030;2024-02-26T14:12:48;4.70;;;2.58;;
83554;SDS011;73511;50.996;7.030;2024-02-26T14:15:15;4.82;;;2.30;;
83554;SDS011;73511;50.996;7.030;2024-02-26T14:17:41;5.32;;;2.42;;
83554;SDS011;73511;50.996;7.030;2024-02-26T14:20:09;5.70;;;3.03;;
83554;SDS011;73511;50.996;7.030;2024-02-26T14:22:36;6.07;;;2.97;;
83554;SDS011;73511;50.996;7.030;2024-02-26T14:25:03;4.38;;;2.60;;
83554;SDS011;73511;50.996;7.030;2024-02-26T14:27:30;8.40;;;4.25;;
83554;SDS011;73511;50.996;7.030;2024-02-26T14:29:57;7.45;;;3.85;;
83554;SDS011;73511;50.996;7.030;2024-02-26T14:32:24;6.50;;;3.45;;
83554;SDS011;73511;50.996;7.030;2024-02-26T14:34:50;6.88;;;2.83;;
83554;SDS011;73511;50.996;7.030;2024-02-26T14:37:17;7.47;;;3.30;;
83554;SDS011;73511;50.996;7.030;2024-02-26T14:39:44;8.25;;;4.32;;
83554;SDS011;73511;50.996;7.030;2024-02-26T14:42:11;7.65;;;3.75;;
83554;SDS011;73511;50.996;7.030;2024-02-26T14:44:38;6.03;;;3.30;;
83554;SDS011;73511;50.996;7.030;2024-02-26T14:47:05;7.85;;;3.08;;
83554;SDS011;73511;50.996;7.030;2024-02-26T14:49:31;6.25;;;2.50;;
83554;SDS011;73511;50.996;7.030;2024-02-26T14:51:58;8.60;;;3.60;;
83554;SDS011;73511;50.996;7.030;2024-02-26T14:54:25;6.20;;;3.47;;
83554;SDS011;73511;50.996;7.030;2024-02-26T14:56:52;5.25;;;2.70;;
83554;SDS011;73511;50.996;7.030;2024-02-26T14:59:19;7.47;;;4.13;;
83554;SDS011;73511;50.996;7.030;2024-02-26T15:01:46;7.75;;;4.07;;
83554;SDS011;73511;50.996;7.030;2024-02-26T15:04:13;7.50;;;3.53;;
83554;SDS011;73511;50.996;7.030;2024-02-26T15:06:40;10.10;;;4.50;;
83554;SDS011;73511;50.996;7.030;2024-02-26T15:09:07;9.50;;;4.40;;
83554;SDS011;73511;50.996;7.030;2024-02-26T15:11:37;8.63;;;3.90;;
83554;SDS011;73511;50.996;7.030;2024-02-26T15:14:05;10.18;;;4.57;;
83554;SDS011;73511;50.996;7.030;2024-02-26T15:16:35;8.27;;;4.30;;
83554;SDS011;73511;50.996;7.030;2024-02-26T15:19:02;8.48;;;4.05;;